sensor_id;sensor_type;location;lat;lon;timestamp;pressure;altitude;pressure_sealevel;temperature;humidity
29331;BME280;16331;52.528;13.342;2023-08-07T00:00:20;160194.00;;;16.33;100.00
29331;BME280;16331;52.528;13.342;2023-08-07T00:02:46;160176.09;;;16.27;100.00
29331;BME280;16331;52.528;13.342;2023-08-07T00:05:12;160166.41;;;16.23;100.00
29331;BME280;16331;52.528;13.342;2023-08-07T00:07:39;160183.00;;;16.29;100.00
29331;BME280;16331;52.528;13.342;2023-08-07T00:10:05;160194.00;;;16.33;100.00
29331;BME280;16331;52.528;13.342;2023-08-07T00:12:32;160206.41;;;16.38;100.00
29331;BME280;16331;52.528;13.342;2023-08-07T00:14:58;160207.81;;;16.38;100.00
29331;BME280;16331;52.528;13.342;2023-08-07T00:17:24;160194.00;;;16.33;100.00
29331;BME280;16331;52.528;13.342;2023-08-07T00:19:50;160107.94;;;16.40;100.00
29331;BME280;16331;52.528;13.342;2023-08-07T00:22:18;156151.56;;;16.36;100.00
29331;BME280;16331;52.528;13.342;2023-08-07T00:24:44;150011.66;;;16.36;100.00
29331;BME280;16331;52.528;13.342;2023-08-07T00:27:11;144930.78;;;16.38;100.00
29331;BME280;16331;52.528;13.342;2023-08-07T00:29:38;142391.69;;;16.39;100.00
29331;BME280;16331;52.528;13.342;2023-08-07T00:32:05;143121.03;;;16.40;100.00
29331;BME280;16331;52.528;13.342;2023-08-07T00:34:31;145276.28;;;16.31;100.00
29331;BME280;16331;52.528;13.342;2023-08-07T00:36:57;140943.31;;;16.40;100.00
29331;BME280;16331;52.528;13.342;2023-08-07T00:39:23;140938.44;;;16.38;100.00
29331;BME280;16331;52.528;13.342;2023-08-07T00:41:51;146752.69;;;16.41;100.00
29331;BME280;16331;52.528;13.342;2023-08-07T00:44:17;148886.59;;;16.23;100.00
29331;BME280;16331;52.528;13.342;2023-08-07T00:46:45;148539.91;;;16.29;100.00
29331;BME280;16331;52.528;13.342;2023-08-07T00:49:13;154291.63;;;16.28;100.00
29331;BME280;16331;52.528;13.342;2023-08-07T00:51:39;153296.00;;;16.17;100.00
29331;BME280;16331;52.528;13.342;2023-08-07T00:54:07;154061.13;;;16.29;100.00
29331;BME280;16331;52.528;13.342;2023-08-07T00:56:36;158496.13;;;16.16;100.00
29331;BME280;16331;52.528;13.342;2023-08-07T00:59:04;160187.16;;;16.31;100.00
29331;BME280;16331;52.528;13.342;2023-08-07T01:01:30;160177.47;;;16.27;100.00
29331;BME280;16331;52.528;13.342;2023-08-07T01:03:56;160155.41;;;16.19;100.00
29331;BME280;16331;52.528;13.342;2023-08-07T01:06:23;160192.63;;;16.33;100.00
29331;BME280;16331;52.528;13.342;2023-08-07T01:08:49;160178.88;;;16.28;100.00
29331;BME280;16331;52.528;13.342;2023-08-07T01:11:43;160207.81;;;16.38;100.00
29331;BME280;16331;52.528;13.342;2023-08-07T01:14:50;160211.94;;;16.40;100.00
29331;BME280;16331;52.528;13.342;2023-08-07T01:17:20;160220.22;;;16.43;100.00
29331;BME280;16331;52.528;13.342;2023-08-07T01:19:48;160224.34;;;16.44;100.00
29331;BME280;16331;52.528;13.342;2023-08-07T01:22:16;160160.94;;;16.21;100.00
29331;BME280;16331;52.528;13.342;2023-08-07T01:24:45;160174.75;;;16.26;100.00
29331;BME280;16331;52.528;13.342;2023-08-07T01:35:22;146297.41;;;16.04;100.00
29331;BME280;16331;52.528;13.342;2023-08-07T01:37:53;158656.97;;;16.28;100.00
29331;BME280;16331;52.528;13.342;2023-08-07T01:40:21;160148.50;;;16.17;100.00
29331;BME280;16331;52.528;13.342;2023-08-07T01:42:48;158280.69;;;16.09;100.00
29331;BME280;16331;52.528;13.342;2023-08-07T01:45:26;159053.78;;;15.91;100.00
29331;BME280;16331;52.528;13.342;2023-08-07T01:47:54;157944.06;;;16.05;100.00
29331;BME280;16331;52.528;13.342;2023-08-07T01:50:23;157007.34;;;15.80;100.00
29331;BME280;16331;52.528;13.342;2023-08-07T01:52:50;154239.81;;;15.77;100.00
29331;BME280;16331;52.528;13.342;2023-08-07T01:55:19;147701.22;;;15.85;100.00
29331;BME280;16331;52.528;13.342;2023-08-07T01:57:45;156530.13;;;15.97;100.00
29331;BME280;16331;52.528;13.342;2023-08-07T02:00:12;157155.47;;;15.88;100.00
29331;BME280;16331;52.528;13.342;2023-08-07T02:02:38;159147.47;;;15.93;100.00
29331;BME280;16331;52.528;13.342;2023-08-07T02:05:06;155544.13;;;15.76;100.00
29331;BME280;16331;52.528;13.342;2023-08-07T02:07:32;147997.91;;;15.59;100.00
29331;BME280;16331;52.528;13.342;2023-08-07T02:09:59;137523.22;;;15.73;100.00
29331;BME280;16331;52.528;13.342;2023-08-07T02:12:25;144754.72;;;15.67;100.00
29331;BME280;16331;52.528;13.342;2023-08-07T02:14:53;138983.09;;;15.78;100.00
29331;BME280;16331;52.528;13.342;2023-08-07T02:17:21;137874.44;;;15.68;100.00
29331;BME280;16331;52.528;13.342;2023-08-07T02:19:51;133885.28;;;15.64;100.00
29331;BME280;16331;52.528;13.342;2023-08-07T02:22:18;125596.44;;;15.71;100.00
29331;BME280;16331;52.528;13.342;2023-08-07T02:24:50;125976.69;;;15.80;100.00
29331;BME280;16331;52.528;13.342;2023-08-07T02:27:20;129943.91;;;15.78;100.00
29331;BME280;16331;52.528;13.342;2023-08-07T02:29:46;123822.50;;;15.84;100.00
29331;BME280;16331;52.528;13.342;2023-08-07T02:32:12;118760.72;;;15.76;100.00
29331;BME280;16331;52.528;13.342;2023-08-07T02:34:38;112282.88;;;15.74;100.00
29331;BME280;16331;52.528;13.342;2023-08-07T02:37:04;113003.53;;;15.75;100.00
29331;BME280;16331;52.528;13.342;2023-08-07T02:39:30;107644.72;;;15.90;100.00
29331;BME280;16331;52.528;13.342;2023-08-07T02:41:59;109106.31;;;16.04;100.00
29331;BME280;16331;52.528;13.342;2023-08-07T02:44:25;111989.56;;;16.08;100.00
29331;BME280;16331;52.528;13.342;2023-08-07T02:46:52;111283.22;;;16.15;100.00
29331;BME280;16331;52.528;13.342;2023-08-07T02:49:18;106569.91;;;15.91;100.00
29331;BME280;16331;52.528;13.342;2023-08-07T02:51:45;103348.19;;;15.94;100.00
29331;BME280;16331;52.528;13.342;2023-08-07T02:54:11;100157.84;;;16.15;100.00
29331;BME280;16331;52.528;13.342;2023-08-07T02:56:39;103740.09;;;16.13;100.00
29331;BME280;16331;52.528;13.342;2023-08-07T02:59:05;104077.97;;;16.02;100.00
29331;BME280;16331;52.528;13.342;2023-08-07T03:01:33;99071.00;;;16.08;100.00
29331;BME280;16331;52.528;13.342;2023-08-07T03:04:00;99075.31;;;16.10;100.00
29331;BME280;16331;52.528;13.342;2023-08-07T03:06:28;99066.69;;;16.05;100.00
29331;BME280;16331;52.528;13.342;2023-08-07T03:08:55;95111.13;;;15.94;100.00
29331;BME280;16331;52.528;13.342;2023-08-07T03:11:21;92240.47;;;15.87;100.00
29331;BME280;16331;52.528;13.342;2023-08-07T03:13:50;87231.44;;;15.81;100.00
29331;BME280;16331;52.528;13.342;2023-08-07T03:16:16;85484.63;;;16.06;100.00
29331;BME280;16331;52.528;13.342;2023-08-07T03:18:42;90481.88;;;16.05;100.00
29331;BME280;16331;52.528;13.342;2023-08-07T03:21:09;87977.38;;;16.02;100.00
29331;BME280;16331;52.528;13.342;2023-08-07T03:23:36;88689.84;;;16.01;100.00
29331;BME280;16331;52.528;13.342;2023-08-07T03:26:04;90127.78;;;16.07;100.00
29331;BME280;16331;52.528;13.342;2023-08-07T03:28:30;86535.34;;;15.93;100.00
29331;BME280;16331;52.528;13.342;2023-08-07T03:30:56;85127.16;;;16.05;100.00
29331;BME280;16331;52.528;13.342;2023-08-07T03:33:22;88328.97;;;15.99;100.00
29331;BME280;16331;52.528;13.342;2023-08-07T03:35:50;88683.66;;;15.97;100.00
29331;BME280;16331;52.528;13.342;2023-08-07T03:38:17;88689.84;;;16.01;100.00
29331;BME280;16331;52.528;13.342;2023-08-07T03:40:43;86538.38;;;15.94;100.00
29331;BME280;16331;52.528;13.342;2023-08-07T03:43:09;85830.88;;;15.99;100.00
29331;BME280;16331;52.528;13.342;2023-08-07T03:45:35;85119.72;;;16.00;100.00
29331;BME280;16331;52.528;13.342;2023-08-07T03:48:04;87265.00;;;16.03;100.00
29331;BME280;16331;52.528;13.342;2023-08-07T03:50:31;88706.91;;;16.12;100.00
29331;BME280;16331;52.528;13.342;2023-08-07T03:53:00;87610.44;;;15.96;100.00
29331;BME280;16331;52.528;13.342;2023-08-07T03:55:28;87603.53;;;15.91;100.00
29331;BME280;16331;52.528;13.342;2023-08-07T03:57:55;85822.59;;;15.93;100.00
29331;BME280;16331;52.528;13.342;2023-08-07T04:00:22;85101.81;;;15.88;100.00
29331;BME280;16331;52.528;13.342;2023-08-07T04:02:49;86895.94;;;15.95;100.00
29331;BME280;16331;52.528;13.342;2023-08-07T04:05:15;88705.34;;;16.11;100.00
29331;BME280;16331;52.528;13.342;2023-08-07T04:07:43;91213.19;;;16.16;100.00
29331;BME280;16331;52.528;13.342;2023-08-07T04:10:09;96942.13;;;16.19;100.00
29331;BME280;16331;52.528;13.342;2023-08-07T04:12:35;99817.78;;;16.25;100.00
29331;BME280;16331;52.528;13.342;2023-08-07T04:15:01;98709.41;;;16.06;100.00
29331;BME280;16331;52.528;13.342;2023-08-07T04:17:27;100498.69;;;16.05;100.00
29331;BME280;16331;52.528;13.342;2023-08-07T04:19:53;97999.25;;;16.09;100.00
29331;BME280;16331;52.528;13.342;2023-08-07T04:22:20;101239.97;;;16.19;100.00
29331;BME280;16331;52.528;13.342;2023-08-07T04:24:47;103016.56;;;16.10;100.00
29331;BME280;16331;52.528;13.342;2023-08-07T04:27:16;99803.88;;;16.17;100.00
29331;BME280;16331;52.528;13.342;2023-08-07T04:29:44;101947.19;;;16.13;100.00
29331;BME280;16331;52.528;13.342;2023-08-07T04:32:10;104805.31;;;16.07;100.00
29331;BME280;16331;52.528;13.342;2023-08-07T04:34:38;103368.84;;;16.06;100.00
29331;BME280;16331;52.528;13.342;2023-08-07T04:37:04;100123.84;;;15.95;100.00
29331;BME280;16331;52.528;13.342;2023-08-07T04:39:32;99065.81;;;16.05;100.00
29331;BME280;16331;52.528;13.342;2023-08-07T04:41:58;102303.03;;;16.12;100.00
29331;BME280;16331;52.528;13.342;2023-08-07T04:44:24;105877.16;;;16.05;100.00
29331;BME280;16331;52.528;13.342;2023-08-07T04:46:51;104077.06;;;16.01;100.00
29331;BME280;16331;52.528;13.342;2023-08-07T04:49:18;103390.44;;;16.18;100.00
29331;BME280;16331;52.528;13.342;2023-08-07T04:51:44;109132.81;;;16.18;100.00
29331;BME280;16331;52.528;13.342;2023-08-07T04:54:12;113447.50;;;16.18;100.00
29331;BME280;16331;52.528;13.342;2023-08-07T04:56:40;112723.25;;;16.16;100.00
29331;BME280;16331;52.528;13.342;2023-08-07T04:59:12;117410.44;;;16.20;100.00
29331;BME280;16331;52.528;13.342;2023-08-07T05:01:38;116301.03;;;16.06;100.00
29331;BME280;16331;52.528;13.342;2023-08-07T05:04:07;120659.22;;;16.23;100.00
29331;BME280;16331;52.528;13.342;2023-08-07T05:06:33;122439.78;;;16.13;100.00
29331;BME280;16331;52.528;13.342;2023-08-07T05:09:00;124979.94;;;16.20;100.00
29331;BME280;16331;52.528;13.342;2023-08-07T05:11:26;129314.34;;;16.20;100.00
29331;BME280;16331;52.528;13.342;2023-08-07T05:13:52;132586.16;;;16.28;100.00
29331;BME280;16331;52.528;13.342;2023-08-07T05:16:23;138723.91;;;16.21;100.00
29331;BME280;16331;52.528;13.342;2023-08-07T05:18:49;132892.81;;;16.04;100.00
29331;BME280;16331;52.528;13.342;2023-08-07T05:21:17;132911.16;;;16.12;100.00
29331;BME280;16331;52.528;13.342;2023-08-07T05:23:45;133290.13;;;16.20;100.00
29331;BME280;16331;52.528;13.342;2023-08-07T05:26:11;138347.28;;;16.15;100.00
29331;BME280;16331;52.528;13.342;2023-08-07T05:28:39;139045.41;;;16.04;100.00
29331;BME280;16331;52.528;13.342;2023-08-07T05:31:05;139443.75;;;16.19;100.00
29331;BME280;16331;52.528;13.342;2023-08-07T05:33:34;139465.38;;;16.28;100.00
29331;BME280;16331;52.528;13.342;2023-08-07T05:36:01;145263.78;;;16.26;100.00
29331;BME280;16331;52.528;13.342;2023-08-07T05:38:27;154166.22;;;16.45;100.00
29331;BME280;16331;52.528;13.342;2023-08-07T05:40:53;159631.84;;;16.31;100.00
29331;BME280;16331;52.528;13.342;2023-08-07T05:43:20;156202.59;;;16.19;100.00
29331;BME280;16331;52.528;13.342;2023-08-07T05:45:48;155377.50;;;16.30;100.00
29331;BME280;16331;52.528;13.342;2023-08-07T05:48:16;151221.03;;;16.27;100.00
29331;BME280;16331;52.528;13.342;2023-08-07T05:50:44;154067.56;;;16.40;100.00
29331;BME280;16331;52.528;13.342;2023-08-07T05:53:12;158252.75;;;16.28;100.00
29331;BME280;16331;52.528;13.342;2023-08-07T05:55:40;155903.75;;;16.38;100.00
29331;BME280;16331;52.528;13.342;2023-08-07T05:58:09;160210.56;;;16.39;100.00
29331;BME280;16331;52.528;13.342;2023-08-07T06:00:35;160263.00;;;16.58;100.00
29331;BME280;16331;52.528;13.342;2023-08-07T06:03:04;160337.53;;;16.85;100.00
29331;BME280;16331;52.528;13.342;2023-08-07T06:05:31;160359.63;;;16.93;100.00
29331;BME280;16331;52.528;13.342;2023-08-07T06:07:57;160367.88;;;16.96;100.00
29331;BME280;16331;52.528;13.342;2023-08-07T06:10:29;160389.97;;;17.04;100.00
29331;BME280;16331;52.528;13.342;2023-08-07T06:12:57;160394.09;;;17.06;100.00
29331;BME280;16331;52.528;13.342;2023-08-07T06:15:23;160343.03;;;16.87;100.00
29331;BME280;16331;52.528;13.342;2023-08-07T06:17:49;160387.16;;;17.03;100.00
29331;BME280;16331;52.528;13.342;2023-08-07T06:20:17;160421.66;;;17.16;100.00
29331;BME280;16331;52.528;13.342;2023-08-07T06:22:44;160407.91;;;17.11;100.00
29331;BME280;16331;52.528;13.342;2023-08-07T06:25:10;160443.72;;;17.24;100.00
29331;BME280;16331;52.528;13.342;2023-08-07T06:27:36;160486.56;;;17.40;100.00
29331;BME280;16331;52.528;13.342;2023-08-07T06:30:05;160478.28;;;17.37;100.00
29331;BME280;16331;52.528;13.342;2023-08-07T06:32:32;160482.41;;;17.38;100.00
29331;BME280;16331;52.528;13.342;2023-08-07T06:34:59;160474.09;;;17.35;100.00
29331;BME280;16331;52.528;13.342;2023-08-07T06:37:25;160492.03;;;17.42;100.00
29331;BME280;16331;52.528;13.342;2023-08-07T06:39:51;160561.13;;;17.67;100.00
29331;BME280;16331;52.528;13.342;2023-08-07T06:42:17;160533.50;;;17.57;100.00
29331;BME280;16331;52.528;13.342;2023-08-07T06:44:43;160539.06;;;17.59;100.00
29331;BME280;16331;52.528;13.342;2023-08-07T06:47:10;160514.16;;;17.50;100.00
29331;BME280;16331;52.528;13.342;2023-08-07T06:49:40;160603.94;;;17.82;100.00
29331;BME280;16331;52.528;13.342;2023-08-07T06:52:07;160591.50;;;17.78;100.00
29331;BME280;16331;52.528;13.342;2023-08-07T06:54:33;160548.72;;;17.62;100.00
29331;BME280;16331;52.528;13.342;2023-08-07T06:57:02;160616.34;;;17.87;100.00
29331;BME280;16331;52.528;13.342;2023-08-07T06:59:32;160585.97;;;17.76;100.00
29331;BME280;16331;52.528;13.342;2023-08-07T07:01:58;160599.78;;;17.81;100.00
29331;BME280;16331;52.528;13.342;2023-08-07T07:04:24;160599.78;;;17.81;100.00
29331;BME280;16331;52.528;13.342;2023-08-07T07:06:50;160615.00;;;17.86;100.00
29331;BME280;16331;52.528;13.342;2023-08-07T07:09:19;160664.66;;;18.04;100.00
29331;BME280;16331;52.528;13.342;2023-08-07T07:11:47;160682.63;;;18.11;100.00
29331;BME280;16331;52.528;13.342;2023-08-07T07:14:14;160707.50;;;18.20;100.00
29331;BME280;16331;52.528;13.342;2023-08-07T07:16:40;160779.34;;;18.46;100.00
29331;BME280;16331;52.528;13.342;2023-08-07T07:19:08;160773.81;;;18.44;100.00
29331;BME280;16331;52.528;13.342;2023-08-07T07:21:35;160841.53;;;18.68;100.00
29331;BME280;16331;52.528;13.342;2023-08-07T07:24:04;160784.91;;;18.48;100.00
29331;BME280;16331;52.528;13.342;2023-08-07T07:26:30;160805.59;;;18.55;100.00
29331;BME280;16331;52.528;13.342;2023-08-07T07:28:56;160853.97;;;18.73;100.00
29331;BME280;16331;52.528;13.342;2023-08-07T07:31:23;160807.00;;;18.56;100.00
29331;BME280;16331;52.528;13.342;2023-08-07T07:33:49;160853.97;;;18.73;100.00
29331;BME280;16331;52.528;13.342;2023-08-07T07:36:18;160914.75;;;18.95;100.00
29331;BME280;16331;52.528;13.342;2023-08-07T07:38:48;160900.97;;;18.90;100.00
29331;BME280;16331;52.528;13.342;2023-08-07T07:41:15;160881.59;;;18.83;100.00
29331;BME280;16331;52.528;13.342;2023-08-07T07:43:43;160931.38;;;19.01;100.00
29331;BME280;16331;52.528;13.342;2023-08-07T07:46:09;160859.50;;;18.75;100.00
29331;BME280;16331;52.528;13.342;2023-08-07T07:48:35;160887.16;;;18.85;100.00
29331;BME280;16331;52.528;13.342;2023-08-07T07:51:05;160870.59;;;18.79;100.00
29331;BME280;16331;52.528;13.342;2023-08-07T07:53:32;160912.00;;;18.94;100.00
29331;BME280;16331;52.528;13.342;2023-08-07T07:56:02;160968.66;;;19.15;100.00
29331;BME280;16331;52.528;13.342;2023-08-07T07:58:28;160961.78;;;19.12;100.00
29331;BME280;16331;52.528;13.342;2023-08-07T08:00:55;160914.75;;;18.95;100.00
29331;BME280;16331;52.528;13.342;2023-08-07T08:03:22;160892.69;;;18.87;100.00
29331;BME280;16331;52.528;13.342;2023-08-07T08:05:51;160842.94;;;18.69;100.00
29331;BME280;16331;52.528;13.342;2023-08-07T08:08:18;160945.19;;;19.06;100.00
29331;BME280;16331;52.528;13.342;2023-08-07T08:10:45;161030.94;;;19.37;100.00
29331;BME280;16331;52.528;13.342;2023-08-07T08:13:16;160964.53;;;19.13;100.00
29331;BME280;16331;52.528;13.342;2023-08-07T08:15:43;160947.94;;;19.07;100.00
29331;BME280;16331;52.528;13.342;2023-08-07T08:18:10;160974.19;;;19.17;100.00
29331;BME280;16331;52.528;13.342;2023-08-07T08:20:37;160983.88;;;19.20;100.00
29331;BME280;16331;52.528;13.342;2023-08-07T08:23:03;161068.28;;;19.51;100.00
29331;BME280;16331;52.528;13.342;2023-08-07T08:25:33;161018.50;;;19.33;100.00
29331;BME280;16331;52.528;13.342;2023-08-07T08:27:59;161094.53;;;19.60;100.00
29331;BME280;16331;52.528;13.342;2023-08-07T08:30:26;161046.16;;;19.43;100.00
29331;BME280;16331;52.528;13.342;2023-08-07T08:32:52;160945.19;;;19.06;100.00
29331;BME280;16331;52.528;13.342;2023-08-07T08:35:18;160941.06;;;19.05;100.00
29331;BME280;16331;52.528;13.342;2023-08-07T08:37:44;161030.94;;;19.37;100.00
29331;BME280;16331;52.528;13.342;2023-08-07T08:40:11;160994.91;;;19.24;100.00
29331;BME280;16331;52.528;13.342;2023-08-07T08:42:44;160949.34;;;19.08;100.00
29331;BME280;16331;52.528;13.342;2023-08-07T08:45:13;161054.44;;;19.46;100.00
29331;BME280;16331;52.528;13.342;2023-08-07T08:47:41;161090.41;;;19.59;100.00
29331;BME280;16331;52.528;13.342;2023-08-07T08:50:11;161010.19;;;19.30;100.00
29331;BME280;16331;52.528;13.342;2023-08-07T08:52:40;161086.25;;;19.57;100.00
29331;BME280;16331;52.528;13.342;2023-08-07T08:55:08;161126.34;;;19.72;100.00
29331;BME280;16331;52.528;13.342;2023-08-07T08:57:35;161118.00;;;19.69;100.00
29331;BME280;16331;52.528;13.342;2023-08-07T09:00:02;161071.03;;;19.52;100.00
29331;BME280;16331;52.528;13.342;2023-08-07T09:02:33;161160.94;;;19.84;100.00
29331;BME280;16331;52.528;13.342;2023-08-07T09:05:00;161136.00;;;19.75;100.00
29331;BME280;16331;52.528;13.342;2023-08-07T09:07:27;161232.81;;;20.10;100.00
29331;BME280;16331;52.528;13.342;2023-08-07T09:09:54;161285.41;;;20.30;100.00
29331;BME280;16331;52.528;13.342;2023-08-07T09:12:25;161171.97;;;19.88;100.00
29331;BME280;16331;52.528;13.342;2023-08-07T09:14:57;161044.75;;;19.42;100.00
29331;BME280;16331;52.528;13.342;2023-08-07T09:17:31;160820.81;;;18.61;100.00
29331;BME280;16331;52.528;13.342;2023-08-07T09:20:00;160807.00;;;18.56;100.00
29331;BME280;16331;52.528;13.342;2023-08-07T09:22:26;160853.97;;;18.73;100.00
29331;BME280;16331;52.528;13.342;2023-08-07T09:24:52;161006.06;;;19.28;100.00
29331;BME280;16331;52.528;13.342;2023-08-07T09:27:21;161060.00;;;19.48;100.00
29331;BME280;16331;52.528;13.342;2023-08-07T09:29:47;161266.09;;;20.23;100.00
29331;BME280;16331;52.528;13.342;2023-08-07T09:32:14;161282.69;;;20.29;100.00
29331;BME280;16331;52.528;13.342;2023-08-07T09:34:41;161293.78;;;20.33;100.00
29331;BME280;16331;52.528;13.342;2023-08-07T09:37:09;161354.66;;;20.55;100.00
29331;BME280;16331;52.528;13.342;2023-08-07T09:39:36;161340.81;;;20.50;100.00
29331;BME280;16331;52.528;13.342;2023-08-07T09:42:04;161270.25;;;20.24;100.00
29331;BME280;16331;52.528;13.342;2023-08-07T09:44:39;161252.25;;;20.18;100.00
29331;BME280;16331;52.528;13.342;2023-08-07T09:47:12;161300.66;;;20.35;100.00
29331;BME280;16331;52.528;13.342;2023-08-07T09:49:39;161261.94;;;20.21;100.00
29331;BME280;16331;52.528;13.342;2023-08-07T09:52:07;161250.84;;;20.17;100.00
29331;BME280;16331;52.528;13.342;2023-08-07T09:54:34;161235.59;;;20.11;100.00
29331;BME280;16331;52.528;13.342;2023-08-07T09:57:01;161196.91;;;19.97;100.00
29331;BME280;16331;52.528;13.342;2023-08-07T09:59:29;161155.38;;;19.82;100.00
29331;BME280;16331;52.528;13.342;2023-08-07T10:01:56;161098.69;;;19.62;100.00
29331;BME280;16331;52.528;13.342;2023-08-07T10:04:23;161207.94;;;20.01;100.00
29331;BME280;16331;52.528;13.342;2023-08-07T10:06:49;161307.56;;;20.38;100.00
29331;BME280;16331;52.528;13.342;2023-08-07T10:09:16;161339.41;;;20.49;100.00
29331;BME280;16331;52.528;13.342;2023-08-07T12:55:39;161155.38;;;19.82;100.00
29331;BME280;16331;52.528;13.342;2023-08-07T12:58:05;161148.47;;;19.80;100.00
29331;BME280;16331;52.528;13.342;2023-08-07T13:00:31;161256.41;;;20.19;100.00
29331;BME280;16331;52.528;13.342;2023-08-07T13:02:57;161520.78;;;21.15;100.00
29331;BME280;16331;52.528;13.342;2023-08-07T13:05:24;161775.69;;;22.07;100.00
29331;BME280;16331;52.528;13.342;2023-08-07T13:07:51;162130.63;;;23.36;99.00
29331;BME280;16331;52.528;13.342;2023-08-07T13:10:20;162184.75;;;23.55;92.69
29331;BME280;16331;52.528;13.342;2023-08-07T13:12:48;162100.06;;;23.25;92.01
29331;BME280;16331;52.528;13.342;2023-08-07T13:15:16;161910.13;;;22.56;98.20
29331;BME280;16331;52.528;13.342;2023-08-07T13:17:44;161961.44;;;22.74;96.33
29331;BME280;16331;52.528;13.342;2023-08-07T13:20:12;161782.59;;;22.10;97.13
29331;BME280;16331;52.528;13.342;2023-08-07T13:22:42;161951.75;;;22.71;84.81
29331;BME280;16331;52.528;13.342;2023-08-07T13:25:10;161686.97;;;21.75;84.98
29331;BME280;16331;52.528;13.342;2023-08-07T13:27:37;161842.16;;;22.31;82.62
29331;BME280;16331;52.528;13.342;2023-08-07T13:30:04;162090.34;;;23.21;70.85
29331;BME280;16331;52.528;13.342;2023-08-07T13:33:34;161803.38;;;22.17;73.25
29331;BME280;16331;52.528;13.342;2023-08-07T13:36:00;161673.13;;;21.70;79.09
29331;BME280;16331;52.528;13.342;2023-08-07T13:38:26;161592.78;;;21.41;83.06
29331;BME280;16331;52.528;13.342;2023-08-07T13:40:53;161825.53;;;22.25;80.00
29331;BME280;16331;52.528;13.342;2023-08-07T13:43:20;161917.09;;;22.58;71.47
29331;BME280;16331;52.528;13.342;2023-08-07T13:45:49;162090.34;;;23.21;66.95
29331;BME280;16331;52.528;13.342;2023-08-07T13:48:17;162162.53;;;23.47;64.01
29331;BME280;16331;52.528;13.342;2023-08-07T13:50:46;162151.47;;;23.43;61.68
29331;BME280;16331;52.528;13.342;2023-08-07T13:53:16;161896.22;;;22.51;67.70
29331;BME280;16331;52.528;13.342;2023-08-07T13:55:44;161716.09;;;21.86;77.91
29331;BME280;16331;52.528;13.342;2023-08-07T13:58:10;161738.25;;;21.94;76.80
29331;BME280;16331;52.528;13.342;2023-08-07T14:00:36;161566.47;;;21.31;83.34
29331;BME280;16331;52.528;13.342;2023-08-07T14:03:04;161520.78;;;21.15;87.85
29331;BME280;16331;52.528;13.342;2023-08-07T14:05:30;161584.47;;;21.38;86.00
29331;BME280;16331;52.528;13.342;2023-08-07T14:07:57;161656.47;;;21.64;85.99
29331;BME280;16331;52.528;13.342;2023-08-07T14:10:23;161569.22;;;21.32;86.29
29331;BME280;16331;52.528;13.342;2023-08-07T14:12:50;161594.19;;;21.41;87.47
29331;BME280;16331;52.528;13.342;2023-08-07T14:15:19;161595.53;;;21.42;89.07
29331;BME280;16331;52.528;13.342;2023-08-07T14:17:47;161574.78;;;21.34;88.18
29331;BME280;16331;52.528;13.342;2023-08-07T14:20:15;161461.22;;;20.93;90.46
29331;BME280;16331;52.528;13.342;2023-08-07T14:22:41;161468.13;;;20.96;93.13
29331;BME280;16331;52.528;13.342;2023-08-07T14:25:09;161432.13;;;20.83;93.31
29331;BME280;16331;52.528;13.342;2023-08-07T14:27:35;161390.63;;;20.68;88.64
29331;BME280;16331;52.528;13.342;2023-08-07T14:30:02;161419.66;;;20.78;89.69
29331;BME280;16331;52.528;13.342;2023-08-07T14:32:28;161554.03;;;21.27;84.92
29331;BME280;16331;52.528;13.342;2023-08-07T14:34:54;161515.22;;;21.13;82.41
29331;BME280;16331;52.528;13.342;2023-08-07T14:37:21;161645.41;;;21.60;77.71
29331;BME280;16331;52.528;13.342;2023-08-07T14:39:48;161825.53;;;22.25;75.13
29331;BME280;16331;52.528;13.342;2023-08-07T14:42:15;161854.66;;;22.36;69.82
29331;BME280;16331;52.528;13.342;2023-08-07T14:44:41;161911.53;;;22.56;68.18
29331;BME280;16331;52.528;13.342;2023-08-07T14:47:11;162069.56;;;23.14;64.67
29331;BME280;16331;52.528;13.342;2023-08-07T14:49:38;162015.47;;;22.94;65.00
29331;BME280;16331;52.528;13.342;2023-08-07T14:52:06;161681.44;;;21.73;70.92
29331;BME280;16331;52.528;13.342;2023-08-07T14:54:37;161482.03;;;21.01;80.62
29331;BME280;16331;52.528;13.342;2023-08-07T14:57:03;161403.06;;;20.72;83.26
29331;BME280;16331;52.528;13.342;2023-08-07T14:59:34;161275.78;;;20.26;86.74
29331;BME280;16331;52.528;13.342;2023-08-07T15:02:03;161259.16;;;20.20;89.53
29331;BME280;16331;52.528;13.342;2023-08-07T15:04:29;161271.63;;;20.25;90.74
29331;BME280;16331;52.528;13.342;2023-08-07T15:06:55;161404.47;;;20.73;87.09
29331;BME280;16331;52.528;13.342;2023-08-07T15:09:22;161565.09;;;21.31;81.17
29331;BME280;16331;52.528;13.342;2023-08-07T15:11:48;161531.88;;;21.19;80.45
29331;BME280;16331;52.528;13.342;2023-08-07T15:14:14;161594.19;;;21.41;79.49
29331;BME280;16331;52.528;13.342;2023-08-07T15:16:41;161605.25;;;21.45;76.65
29331;BME280;16331;52.528;13.342;2023-08-07T15:19:08;161688.38;;;21.76;76.13
29331;BME280;16331;52.528;13.342;2023-08-07T15:21:34;161688.38;;;21.76;74.81
29331;BME280;16331;52.528;13.342;2023-08-07T15:24:00;161650.97;;;21.62;74.24
29331;BME280;16331;52.528;13.342;2023-08-07T15:26:27;161462.56;;;20.94;79.30